createdAt,value
2022-12-03T00:00:47.598Z,2.37
2022-12-03T00:03:15.836Z,2.25
2022-12-03T00:05:48.878Z,2.21
2022-12-03T00:08:17.049Z,2.06
2022-12-03T00:10:46.157Z,2.21
2022-12-03T00:13:13.820Z,2.16
2022-12-03T00:15:41.535Z,2.14
2022-12-03T00:18:09.222Z,2.03
2022-12-03T00:20:37.320Z,2.17
2022-12-03T00:23:05.255Z,2.14
2022-12-03T00:25:32.903Z,2.09
2022-12-03T00:28:02.019Z,1.98
2022-12-03T00:30:29.951Z,2.25
2022-12-03T00:32:57.597Z,2.05
2022-12-03T00:35:25.321Z,1.98
2022-12-03T00:37:52.985Z,2.27
2022-12-03T00:40:20.732Z,2.14
2022-12-03T00:42:48.378Z,2.15
2022-12-03T00:45:17.716Z,2.21
2022-12-03T00:47:46.059Z,2.12
2022-12-03T00:50:13.762Z,2.15
2022-12-03T00:52:41.448Z,2.09
2022-12-03T00:55:10.034Z,2.15
2022-12-03T00:57:37.877Z,2.36
2022-12-03T01:00:07.337Z,2.21
2022-12-03T01:02:36.629Z,2.21
2022-12-03T01:05:04.664Z,2.17
2022-12-03T01:07:32.393Z,2.29
2022-12-03T01:10:00.169Z,2.15
2022-12-03T01:12:27.835Z,2.17
2022-12-03T01:14:55.821Z,2.03
2022-12-03T01:17:24.113Z,2.02
2022-12-03T01:19:53.198Z,1.98
2022-12-03T01:22:21.034Z,1.92
2022-12-03T01:24:48.804Z,1.95
2022-12-03T01:27:16.490Z,2.03
2022-12-03T01:29:44.160Z,2.14
2022-12-03T01:32:17.043Z,2.11
2022-12-03T01:34:44.902Z,2.15
2022-12-03T01:37:14.297Z,2.12
2022-12-03T01:39:42.548Z,2.06
2022-12-03T01:42:14.347Z,2.22
2022-12-03T01:44:42.323Z,2.03
2022-12-03T01:47:14.748Z,1.94
2022-12-03T01:49:44.721Z,2.08
2022-12-03T01:52:16.886Z,2.05
2022-12-03T01:54:48.298Z,2.24
2022-12-03T01:57:22.518Z,2.14
2022-12-03T01:59:50.811Z,2.22
2022-12-03T02:02:23.549Z,2.17
2022-12-03T02:04:53.146Z,2.13
2022-12-03T02:07:25.574Z,2.00
2022-12-03T02:09:54.673Z,2.06
2022-12-03T02:12:26.314Z,2.01
2022-12-03T02:14:55.565Z,2.29
2022-12-03T02:17:23.595Z,2.25
2022-12-03T02:19:52.154Z,2.07
2022-12-03T02:22:39.013Z,2.11
2022-12-03T02:25:22.194Z,2.10
2022-12-03T02:27:50.706Z,2.03
2022-12-03T02:30:21.208Z,2.02
2022-12-03T02:32:49.384Z,2.03
2022-12-03T02:35:18.968Z,2.12
2022-12-03T02:37:49.279Z,2.06
2022-12-03T02:40:23.743Z,1.98
2022-12-03T02:42:54.119Z,1.99
2022-12-03T02:45:25.015Z,2.08
2022-12-03T02:47:55.750Z,2.26
2022-12-03T02:50:28.447Z,2.09
2022-12-03T02:52:58.549Z,2.11
2022-12-03T02:55:33.476Z,2.13
2022-12-03T02:58:05.880Z,2.22
2022-12-03T03:00:34.492Z,2.06
2022-12-03T03:03:03.567Z,2.04
2022-12-03T03:05:31.894Z,2.23
2022-12-03T03:08:01.711Z,2.10
2022-12-03T03:10:31.428Z,2.04
2022-12-03T03:12:59.683Z,1.94
2022-12-03T03:15:27.456Z,2.05
2022-12-03T03:17:55.724Z,2.11
2022-12-03T03:20:23.464Z,1.99
2022-12-03T03:22:51.095Z,2.01
2022-12-03T03:25:22.381Z,2.12
2022-12-03T03:27:51.639Z,2.10
2022-12-03T03:30:19.372Z,2.14
2022-12-03T03:32:47.080Z,2.04
2022-12-03T03:35:14.937Z,2.08
2022-12-03T03:37:43.309Z,2.12
2022-12-03T03:40:11.908Z,2.07
2022-12-03T03:42:40.124Z,2.07
2022-12-03T03:45:10.817Z,2.06
2022-12-03T03:47:40.043Z,2.07
2022-12-03T03:50:10.147Z,2.26
2022-12-03T03:52:39.278Z,2.05
2022-12-03T03:55:08.872Z,2.00
2022-12-03T03:57:36.914Z,2.07
2022-12-03T04:00:08.376Z,2.11
2022-12-03T04:02:38.693Z,2.22
2022-12-03T04:05:07.736Z,2.06
2022-12-03T04:07:35.410Z,2.01
2022-12-03T04:10:24.212Z,2.19
2022-12-03T04:12:56.671Z,2.21
2022-12-03T04:15:24.644Z,2.17
2022-12-03T04:18:07.791Z,2.22
2022-12-03T04:20:35.768Z,2.25
2022-12-03T04:23:02.959Z,2.29
2022-12-03T04:25:48.316Z,2.12
2022-12-03T04:28:33.879Z,2.12
2022-12-03T04:31:21.650Z,2.14
2022-12-03T04:34:08.489Z,2.15
2022-12-03T04:36:36.618Z,2.20
2022-12-03T04:39:04.977Z,2.62
2022-12-03T04:41:32.718Z,2.23
2022-12-03T04:44:18.059Z,2.14
2022-12-03T04:47:01.375Z,2.10
2022-12-03T04:49:31.121Z,2.03
2022-12-03T04:51:58.867Z,2.03
2022-12-03T04:54:26.871Z,2.02
2022-12-03T04:56:54.612Z,2.00
2022-12-03T04:59:22.491Z,2.17
2022-12-03T05:01:50.289Z,2.24
2022-12-03T05:04:18.021Z,2.07
2022-12-03T05:06:47.111Z,2.08
2022-12-03T05:09:16.364Z,2.05
2022-12-03T05:11:44.778Z,2.03
2022-12-03T05:14:13.043Z,2.10
2022-12-03T05:16:40.893Z,2.11
2022-12-03T05:19:09.932Z,2.10
2022-12-03T05:21:37.749Z,2.13
2022-12-03T05:24:07.494Z,2.12
2022-12-03T05:26:35.321Z,2.03
2022-12-03T05:29:03.304Z,1.98
2022-12-03T05:31:31.131Z,2.25
2022-12-03T05:33:59.041Z,2.07
2022-12-03T05:36:26.742Z,2.06
2022-12-03T05:38:54.403Z,1.97
2022-12-03T05:41:40.877Z,2.05
2022-12-03T05:44:08.865Z,2.33
2022-12-03T05:46:36.692Z,2.17
2022-12-03T05:49:04.434Z,2.09
2022-12-03T05:51:33.263Z,2.17
2022-12-03T05:54:00.951Z,2.11
2022-12-03T05:56:30.064Z,2.13
2022-12-03T05:58:57.793Z,2.10
2022-12-03T06:01:25.854Z,1.99
2022-12-03T06:03:53.608Z,1.99
2022-12-03T06:06:21.435Z,1.99
2022-12-03T06:08:50.685Z,2.02
2022-12-03T06:11:18.677Z,2.14
2022-12-03T06:13:47.660Z,2.20
2022-12-03T06:16:15.483Z,2.00
2022-12-03T06:18:43.210Z,1.96
2022-12-03T06:21:10.856Z,1.99
2022-12-03T06:23:44.447Z,1.97
2022-12-03T06:26:12.242Z,2.05
2022-12-03T06:28:40.133Z,2.29
2022-12-03T06:31:09.162Z,2.22
2022-12-03T06:33:36.910Z,1.97
2022-12-03T06:36:05.856Z,1.96
2022-12-03T06:38:33.531Z,2.01
2022-12-03T06:41:01.228Z,2.01
2022-12-03T06:43:30.824Z,2.02
2022-12-03T06:45:58.678Z,2.12
2022-12-03T06:48:27.731Z,2.13
2022-12-03T06:50:55.649Z,2.03
2022-12-03T06:53:23.610Z,1.82
2022-12-03T06:55:51.340Z,1.89
2022-12-03T06:58:19.045Z,1.95
2022-12-03T07:00:47.161Z,1.93
2022-12-03T07:03:15.073Z,1.97
2022-12-03T07:05:44.193Z,1.83
2022-12-03T07:08:11.981Z,1.80
2022-12-03T07:10:39.755Z,1.81
2022-12-03T07:13:07.382Z,1.85
2022-12-03T07:15:35.055Z,1.74
2022-12-03T07:18:02.750Z,1.78
2022-12-03T07:20:30.594Z,1.85
2022-12-03T07:23:00.043Z,1.92
2022-12-03T07:25:27.879Z,1.89
2022-12-03T07:27:55.879Z,1.99
2022-12-03T07:30:25.806Z,2.00
2022-12-03T07:32:53.660Z,2.04
2022-12-03T07:35:21.596Z,2.06
2022-12-03T07:37:49.305Z,1.94
2022-12-03T07:40:18.738Z,2.08
2022-12-03T07:42:46.399Z,2.05
2022-12-03T07:45:14.179Z,2.05
2022-12-03T07:47:42.020Z,2.12
2022-12-03T07:50:12.189Z,2.21
2022-12-03T07:52:40.043Z,2.18
2022-12-03T07:55:08.528Z,2.27
2022-12-03T07:57:37.999Z,2.14
2022-12-03T08:00:07.581Z,2.28
2022-12-03T08:02:37.819Z,2.27
2022-12-03T08:05:06.372Z,2.17
2022-12-03T08:07:34.130Z,2.08
2022-12-03T08:10:02.674Z,2.18
2022-12-03T08:12:40.811Z,2.11
2022-12-03T08:15:15.853Z,2.27
2022-12-03T08:17:45.576Z,2.16
2022-12-03T08:20:16.708Z,2.13
2022-12-03T08:22:46.131Z,2.16
2022-12-03T08:25:18.200Z,2.30
2022-12-03T08:27:46.105Z,2.28
2022-12-03T08:30:17.957Z,2.28
2022-12-03T08:32:46.761Z,2.44
2022-12-03T08:35:23.006Z,2.41
2022-12-03T08:37:57.334Z,2.60
2022-12-03T08:40:29.204Z,2.54
2022-12-03T08:42:57.094Z,2.58
2022-12-03T08:45:41.700Z,2.66
2022-12-03T08:48:26.511Z,2.54
2022-12-03T08:50:56.559Z,2.39
2022-12-03T08:53:31.414Z,2.40
2022-12-03T08:56:02.538Z,2.76
2022-12-03T08:58:38.093Z,2.59
2022-12-03T09:01:42.796Z,2.64
2022-12-03T09:04:26.336Z,2.76
2022-12-03T09:06:54.922Z,2.71
2022-12-03T09:09:23.212Z,3.02
2022-12-03T09:11:51.546Z,2.91
2022-12-03T09:14:21.237Z,2.88
2022-12-03T09:16:51.951Z,2.99
2022-12-03T09:19:19.814Z,3.20
2022-12-03T09:21:47.638Z,3.03
2022-12-03T09:24:15.485Z,3.04
2022-12-03T09:26:43.295Z,2.94
2022-12-03T09:29:12.631Z,3.09
2022-12-03T09:31:40.873Z,3.00
2022-12-03T09:34:10.052Z,2.95
2022-12-03T09:36:37.985Z,3.17
2022-12-03T09:39:06.220Z,3.03
2022-12-03T09:41:33.880Z,3.22
2022-12-03T09:44:04.343Z,3.07
2022-12-03T09:46:33.631Z,3.05
2022-12-03T09:49:02.164Z,3.30
2022-12-03T09:51:34.444Z,3.12
2022-12-03T09:54:04.174Z,3.16
2022-12-03T09:56:32.257Z,3.14
2022-12-03T09:59:00.394Z,3.11
2022-12-03T10:01:30.463Z,3.34
2022-12-03T10:03:59.527Z,3.11
2022-12-03T10:06:27.580Z,3.11
2022-12-03T10:08:57.020Z,3.31
2022-12-03T10:11:27.545Z,3.35
2022-12-03T10:13:58.068Z,3.23
2022-12-03T10:16:28.115Z,3.43
2022-12-03T10:19:00.268Z,3.32
2022-12-03T10:21:32.087Z,3.50
2022-12-03T10:24:20.647Z,3.49
2022-12-03T10:26:50.173Z,3.52
2022-12-03T10:29:20.749Z,3.53
2022-12-03T10:31:56.388Z,3.66
2022-12-03T10:34:31.620Z,3.71
2022-12-03T10:37:14.855Z,3.65
2022-12-03T10:39:56.991Z,3.69
2022-12-03T10:42:25.506Z,3.96
2022-12-03T10:45:08.974Z,3.84
2022-12-03T10:47:36.894Z,3.98
2022-12-03T10:50:07.043Z,3.86
2022-12-03T10:52:34.938Z,3.67
2022-12-03T10:55:04.002Z,3.93
2022-12-03T10:57:31.779Z,3.83
2022-12-03T10:59:59.718Z,3.86
2022-12-03T11:02:28.124Z,3.88
2022-12-03T11:04:56.305Z,3.85
2022-12-03T11:07:24.945Z,4.02
2022-12-03T11:09:55.635Z,3.85
2022-12-03T11:12:27.421Z,4.10
2022-12-03T11:15:07.229Z,3.99
2022-12-03T11:17:50.642Z,4.18
2022-12-03T11:21:10.946Z,4.36
2022-12-03T11:24:18.368Z,4.59
2022-12-03T11:27:28.734Z,4.44
2022-12-03T11:30:00.041Z,4.52
2022-12-03T11:33:06.327Z,4.56
2022-12-03T11:36:05.235Z,4.42
2022-12-03T11:38:53.647Z,4.62
2022-12-03T11:41:28.179Z,4.46
2022-12-03T11:44:27.311Z,4.26
2022-12-03T11:46:58.194Z,4.41
2022-12-03T11:49:31.489Z,4.32
2022-12-03T11:51:59.618Z,4.48
2022-12-03T11:54:27.381Z,4.38
2022-12-03T11:56:56.039Z,4.36
2022-12-03T11:59:23.760Z,4.32
2022-12-03T12:01:51.580Z,4.49
2022-12-03T12:04:32.673Z,4.18
2022-12-03T12:07:01.686Z,4.32
2022-12-03T12:09:48.827Z,4.15
2022-12-03T12:12:22.084Z,4.05
2022-12-03T12:14:49.749Z,4.14
2022-12-03T12:17:33.466Z,4.14
2022-12-03T12:20:25.778Z,3.91
2022-12-03T12:22:55.324Z,4.07
2022-12-03T12:25:41.462Z,4.04
2022-12-03T12:28:09.437Z,4.10
2022-12-03T12:30:37.820Z,4.08
2022-12-03T12:33:15.095Z,4.03
2022-12-03T12:35:44.283Z,4.11
2022-12-03T12:38:17.094Z,4.21
2022-12-03T12:40:48.941Z,4.03
2022-12-03T12:43:24.355Z,4.15
2022-12-03T12:45:54.698Z,4.17
2022-12-03T12:48:25.879Z,4.31
2022-12-03T12:51:01.046Z,4.18
2022-12-03T12:53:30.491Z,4.15
2022-12-03T12:55:59.967Z,4.29
2022-12-03T12:58:31.808Z,4.14
2022-12-03T13:01:01.887Z,4.24
2022-12-03T13:03:34.882Z,4.30
2022-12-03T13:06:04.405Z,4.16
2022-12-03T13:08:38.688Z,4.09
2022-12-03T13:11:07.510Z,4.06
2022-12-03T13:13:43.651Z,4.16
2022-12-03T13:16:19.135Z,4.12
2022-12-03T13:18:48.894Z,3.92
2022-12-03T13:21:24.978Z,4.02
2022-12-03T13:23:55.592Z,3.86
2022-12-03T13:26:38.760Z,3.92
2022-12-03T13:29:14.584Z,4.19
2022-12-03T13:31:45.967Z,4.06
2022-12-03T13:34:20.139Z,3.91
2022-12-03T13:36:55.331Z,3.88
2022-12-03T13:39:29.924Z,3.84
2022-12-03T13:42:16.314Z,3.98
2022-12-03T13:44:46.615Z,3.77
2022-12-03T13:47:16.867Z,3.73
2022-12-03T13:49:52.068Z,3.83
2022-12-03T13:52:24.787Z,3.86
2022-12-03T13:54:53.884Z,3.85
2022-12-03T13:57:23.452Z,3.75
2022-12-03T13:59:51.642Z,3.90
2022-12-03T14:02:20.033Z,4.07
2022-12-03T14:04:48.067Z,4.00
2022-12-03T14:07:16.023Z,3.99
2022-12-03T14:09:45.170Z,4.03
2022-12-03T14:12:28.993Z,3.91
2022-12-03T14:14:57.344Z,3.91
2022-12-03T14:17:25.089Z,3.92
2022-12-03T14:19:53.245Z,3.74
2022-12-03T14:22:23.333Z,3.77
2022-12-03T14:24:52.754Z,3.77
2022-12-03T14:27:21.106Z,3.74
2022-12-03T14:29:48.812Z,3.70
2022-12-03T14:32:16.889Z,3.95
2022-12-03T14:34:44.767Z,3.78
2022-12-03T14:37:12.533Z,3.75
2022-12-03T14:39:40.178Z,3.66
2022-12-03T14:42:15.094Z,3.96
2022-12-03T14:44:44.326Z,3.86
2022-12-03T14:47:13.013Z,3.84
2022-12-03T14:49:41.339Z,3.72
2022-12-03T14:52:12.262Z,3.75
2022-12-03T14:54:42.269Z,3.63
2022-12-03T14:57:13.091Z,3.94
2022-12-03T14:59:41.061Z,3.74
2022-12-03T15:02:09.887Z,3.82
2022-12-03T15:04:38.252Z,3.72
2022-12-03T15:07:07.176Z,3.64
2022-12-03T15:09:35.050Z,3.60
2022-12-03T15:12:03.969Z,3.62
2022-12-03T15:14:33.213Z,3.57
2022-12-03T15:17:01.074Z,3.46
2022-12-03T15:19:28.861Z,3.64
2022-12-03T15:21:56.618Z,3.56
2022-12-03T15:24:24.627Z,3.42
2022-12-03T15:26:53.603Z,3.58
2022-12-03T15:29:21.686Z,3.52
2022-12-03T15:31:50.931Z,3.55
2022-12-03T15:34:22.537Z,3.48
2022-12-03T15:36:50.934Z,3.53
2022-12-03T15:39:18.746Z,3.58
2022-12-03T15:41:46.496Z,3.55
2022-12-03T15:44:14.335Z,3.47
2022-12-03T15:46:42.139Z,3.37
2022-12-03T15:49:11.288Z,3.41
2022-12-03T15:51:39.054Z,3.36
2022-12-03T15:54:07.233Z,3.41
2022-12-03T15:56:37.721Z,3.41
2022-12-03T15:59:05.589Z,3.44
2022-12-03T16:01:33.390Z,3.42
2022-12-03T16:04:01.567Z,3.40
2022-12-03T16:06:30.737Z,3.36
2022-12-03T16:08:58.547Z,3.49
2022-12-03T16:11:26.272Z,3.39
2022-12-03T16:13:54.118Z,3.41
2022-12-03T16:16:21.911Z,3.44
2022-12-03T16:18:49.786Z,3.57
2022-12-03T16:21:19.740Z,3.47
2022-12-03T16:23:52.671Z,3.46
2022-12-03T16:26:20.443Z,3.40
2022-12-03T16:28:49.205Z,3.61
2022-12-03T16:31:19.068Z,3.51
2022-12-03T16:33:47.082Z,3.63
2022-12-03T16:36:15.737Z,3.39
2022-12-03T16:38:43.420Z,3.53
2022-12-03T16:41:12.973Z,3.74
2022-12-03T16:43:40.712Z,3.73
2022-12-03T16:46:25.739Z,3.63
2022-12-03T16:48:55.236Z,3.55
2022-12-03T16:51:23.464Z,3.44
2022-12-03T16:53:51.252Z,3.47
2022-12-03T16:56:20.881Z,3.49
2022-12-03T16:58:48.663Z,3.41
2022-12-03T17:01:16.763Z,3.52
2022-12-03T17:03:44.660Z,3.56
2022-12-03T17:06:13.134Z,3.51
2022-12-03T17:08:47.362Z,3.42
2022-12-03T17:11:17.244Z,3.43
2022-12-03T17:13:46.727Z,3.43
2022-12-03T17:16:17.266Z,3.47
2022-12-03T17:18:45.203Z,3.43
2022-12-03T17:21:13.040Z,3.40
2022-12-03T17:23:40.732Z,3.70
2022-12-03T17:26:08.540Z,3.45
2022-12-03T17:28:36.538Z,3.64
2022-12-03T17:31:05.948Z,3.40
2022-12-03T17:33:33.777Z,3.42
2022-12-03T17:36:01.521Z,3.57
2022-12-03T17:38:32.810Z,3.40
2022-12-03T17:41:05.147Z,3.40
2022-12-03T17:43:33.003Z,3.37
2022-12-03T17:46:01.285Z,3.40
2022-12-03T17:48:31.472Z,3.35
2022-12-03T17:50:59.524Z,3.46
2022-12-03T17:53:27.231Z,3.44
2022-12-03T17:55:55.004Z,3.50
2022-12-03T17:58:22.962Z,3.60
2022-12-03T18:00:50.828Z,3.44
2022-12-03T18:03:19.083Z,3.49
2022-12-03T18:05:48.202Z,3.40
2022-12-03T18:08:16.122Z,3.55
2022-12-03T18:10:44.005Z,3.61
2022-12-03T18:13:12.001Z,3.46
2022-12-03T18:15:39.680Z,3.52
2022-12-03T18:18:07.384Z,3.59
2022-12-03T18:20:35.207Z,3.56
2022-12-03T18:23:05.033Z,3.43
2022-12-03T18:25:32.783Z,3.40
2022-12-03T18:28:00.436Z,3.43
2022-12-03T18:30:28.280Z,3.36
2022-12-03T18:32:56.496Z,3.32
2022-12-03T18:35:24.394Z,3.39
2022-12-03T18:37:52.703Z,3.36
2022-12-03T18:40:26.934Z,3.42
2022-12-03T18:42:54.734Z,3.49
2022-12-03T18:45:22.418Z,3.38
2022-12-03T18:47:50.379Z,3.40
2022-12-03T18:50:18.410Z,3.36
2022-12-03T18:52:46.162Z,3.41
2022-12-03T18:55:19.175Z,3.40
2022-12-03T18:57:48.302Z,3.35
2022-12-03T19:00:17.047Z,3.36
2022-12-03T19:03:02.475Z,3.32
2022-12-03T19:05:32.360Z,3.37
2022-12-03T19:08:00.306Z,3.46
2022-12-03T19:10:28.439Z,3.25
2022-12-03T19:12:58.020Z,3.38
2022-12-03T19:15:26.261Z,3.35
2022-12-03T19:17:54.125Z,3.48
2022-12-03T19:20:21.832Z,3.45
2022-12-03T19:22:49.674Z,3.37
2022-12-03T19:25:17.592Z,3.26
2022-12-03T19:27:45.514Z,3.26
2022-12-03T19:30:15.798Z,3.38
2022-12-03T19:32:45.181Z,3.31
2022-12-03T19:35:12.942Z,3.40
2022-12-03T19:37:40.778Z,3.54
2022-12-03T19:40:10.517Z,3.46
2022-12-03T19:42:38.444Z,3.51
2022-12-03T19:45:07.484Z,3.52
2022-12-03T19:47:37.005Z,3.37
2022-12-03T19:50:05.734Z,3.29
2022-12-03T19:52:36.229Z,3.37
2022-12-03T19:55:04.270Z,3.19
2022-12-03T19:57:32.259Z,3.24
2022-12-03T20:00:01.062Z,3.30
2022-12-03T20:02:28.996Z,3.21
2022-12-03T20:04:58.170Z,3.15
2022-12-03T20:07:26.072Z,3.11
2022-12-03T20:09:54.258Z,3.23
2022-12-03T20:12:22.322Z,3.23
2022-12-03T20:14:51.545Z,3.42
2022-12-03T20:17:19.232Z,3.27
2022-12-03T20:19:47.042Z,3.24
2022-12-03T20:22:16.270Z,3.36
2022-12-03T20:24:44.161Z,3.24
2022-12-03T20:27:11.886Z,3.21
2022-12-03T20:29:39.733Z,3.28
2022-12-03T20:32:09.022Z,3.16
2022-12-03T20:34:36.865Z,3.13
2022-12-03T20:37:04.718Z,3.15
2022-12-03T20:39:33.955Z,3.13
2022-12-03T20:42:01.655Z,3.30
2022-12-03T20:44:29.778Z,3.14
2022-12-03T20:46:57.584Z,3.21
2022-12-03T20:49:25.440Z,3.25
2022-12-03T20:51:53.215Z,3.43
2022-12-03T20:54:21.014Z,3.42
2022-12-03T20:56:51.113Z,3.22
2022-12-03T20:59:19.283Z,3.39
2022-12-03T21:01:47.152Z,3.28
2022-12-03T21:04:16.104Z,3.14
2022-12-03T21:06:43.944Z,3.11
2022-12-03T21:09:12.700Z,3.16
2022-12-03T21:11:42.566Z,3.15
2022-12-03T21:14:12.564Z,3.18
2022-12-03T21:19:30.711Z,3.10
2022-12-03T21:21:58.381Z,3.07
2022-12-03T21:24:26.130Z,3.06
2022-12-03T21:26:54.004Z,3.06
2022-12-03T21:29:23.394Z,3.12
2022-12-03T21:31:51.125Z,3.07
2022-12-03T21:34:18.954Z,3.14
2022-12-03T21:36:46.792Z,3.13
2022-12-03T21:39:14.591Z,3.09
2022-12-03T21:42:33.910Z,3.13
2022-12-03T21:44:31.628Z,3.08
2022-12-03T21:47:12.751Z,3.10
2022-12-03T21:49:42.208Z,3.29
2022-12-03T21:52:10.786Z,3.32
2022-12-03T21:54:38.534Z,3.20
2022-12-03T21:57:06.203Z,3.15
2022-12-03T21:59:35.266Z,3.18
2022-12-03T22:02:03.324Z,3.07
2022-12-03T22:04:31.097Z,3.10
2022-12-03T22:06:59.328Z,3.31
2022-12-03T22:09:27.176Z,3.26
2022-12-03T22:11:56.907Z,3.21
2022-12-03T22:14:24.807Z,3.10
2022-12-03T22:16:53.922Z,3.12
2022-12-03T22:19:23.364Z,3.01
2022-12-03T22:21:51.188Z,3.08
2022-12-03T22:24:19.470Z,3.04
2022-12-03T22:26:47.431Z,3.04
2022-12-03T22:29:15.856Z,3.07
2022-12-03T22:31:43.615Z,3.20
2022-12-03T22:34:12.876Z,3.09
2022-12-03T22:36:41.167Z,3.05
2022-12-03T22:39:08.861Z,3.04
2022-12-03T22:41:36.592Z,2.99
2022-12-03T22:44:04.864Z,3.08
2022-12-03T22:46:32.850Z,3.03
2022-12-03T22:49:06.677Z,3.01
2022-12-03T22:51:36.885Z,3.08
2022-12-03T22:54:05.554Z,3.11
2022-12-03T22:56:33.738Z,3.03
2022-12-03T22:59:01.877Z,3.02
2022-12-03T23:01:31.947Z,2.94
2022-12-03T23:04:00.999Z,3.19
2022-12-03T23:06:29.891Z,3.01
2022-12-03T23:09:00.044Z,3.05
2022-12-03T23:11:29.216Z,3.11
2022-12-03T23:13:59.066Z,3.04
2022-12-03T23:16:29.143Z,2.94
2022-12-03T23:18:58.924Z,2.85
2022-12-03T23:21:30.712Z,2.84
2022-12-03T23:24:00.594Z,2.77
2022-12-03T23:26:29.166Z,2.98
2022-12-03T23:28:57.352Z,2.99
2022-12-03T23:31:27.015Z,2.91
2022-12-03T23:33:56.017Z,2.93
2022-12-03T23:36:26.835Z,2.88
2022-12-03T23:38:55.123Z,2.76
2022-12-03T23:41:24.827Z,2.79
2022-12-03T23:43:52.706Z,2.78
2022-12-03T23:46:22.536Z,2.87
2022-12-03T23:48:51.392Z,2.91
2022-12-03T23:51:21.656Z,2.85
2022-12-03T23:53:50.921Z,2.88
2022-12-03T23:56:20.907Z,2.71
2022-12-03T23:58:50.260Z,2.69
